This is the latest recevied weather packets stored in our database for station/object IZ1UQG-2. If no packets are shown the sender has not sent any weather packets the latest 10 day(s).
| Time | Temp. | Humidity | Pressure | Rain* | Wind** | Luminosity | Snow |
|---|---|---|---|---|---|---|---|
| 1777416974 | 14.44° C | 89% | 1014.9 hPa | 0.51 mm | - | 0 W/m² | - |
| 1777416424 | 14.44° C | 89% | 1014.9 hPa | 0.51 mm | - | 0 W/m² | - |
| 1777415884 | 15° C | 89% | 1014.8 hPa | 0.51 mm | - | 0 W/m² | - |
| 1777415704 | 15° C | 89% | 1014.8 hPa | 0.51 mm | - | 0 W/m² | - |
| 1777415285 | 14.44° C | 89% | 1014.9 hPa | 0.51 mm | - | 0 W/m² | - |
| 1777414804 | 14.44° C | 89% | 1014.7 hPa | 0.51 mm | - | 0 W/m² | - |
| 1777414323 | 15° C | 89% | 1014.7 hPa | 0.76 mm | - | 0 W/m² | - |
| 1777414263 | 15° C | 89% | 1014.6 hPa | 1.02 mm | - | 0 W/m² | - |
| 1777413724 | 15° C | 89% | 1014.7 hPa | 1.02 mm | - | 0 W/m² | - |
| 1777413606 | 15° C | 90% | 1014.7 hPa | 1.27 mm | - | 0 W/m² | - |
| 1777413484 | 14.44° C | 89% | 1014.8 hPa | 1.27 mm | - | 0 W/m² | - |
| 1777413124 | 15° C | 89% | 1014.7 hPa | 1.52 mm | - | 0 W/m² | - |
| 1777412764 | 14.44° C | 89% | 1014.9 hPa | 2.29 mm | - | 0 W/m² | - |
| 1777411024 | 15° C | 88% | 1015.2 hPa | 2.29 mm | - | 0 W/m² | - |
| 1777410664 | 15.56° C | 88% | 1015.1 hPa | 2.03 mm | - | 0 W/m² | - |
| 1777410184 | 15.56° C | 88% | 1014.9 hPa | 2.03 mm | - | 0 W/m² | - |
| 1777409464 | 15° C | 86% | 1014.9 hPa | 1.78 mm | - | 0 W/m² | - |
| 1777408984 | 15.56° C | 86% | 1014.6 hPa | 0.76 mm | - | 0 W/m² | - |
| 1777408144 | 15.56° C | 85% | 1014.2 hPa | 0 mm | - | 0 W/m² | - |
| 1777407244 | 16.11° C | 85% | 1014.3 hPa | 0 mm | - | 0 W/m² | - |
| 1777406884 | 16.11° C | 83% | 1014.2 hPa | 0 mm | - | 0 W/m² | - |
| 1777406704 | 16.11° C | 83% | 1014.1 hPa | 0 mm | - | 0 W/m² | - |
| 1777406524 | 16.11° C | 82% | 1014.1 hPa | 0 mm | - | 0 W/m² | - |
| 1777406404 | 16.11° C | 81% | 1014.1 hPa | 0 mm | - | 0 W/m² | - |
| 1777405864 | 16.11° C | 82% | 1013.9 hPa | 0 mm | - | 0 W/m² | - |
* Rain latest hour (hover to see other rain measurements)
** Current wind speed in m/s (hover to see current wind gust speed)